Terminal Aerodrome Forecast
Issued by NWS

Home | Current Version | Previous Version | Text Only | Print | Product List | Glossary On
Versions: 1 2 3 4 5 6 7 8 9 10 11 12 13 14
000
FTUS44 KLUB 200541
TAFCDS
TAF
KCDS 200541Z 2006/2106 13011KT P6SM SCT250
     FM201600 15019KT P6SM BKN040
     FM210000 13014KT P6SM SCT025 BKN035 PROB30 2102/2106 VRB35KT
      TSRA BKN035CB=

USA.gov is the U.S. government's official web portal to all federal, state and local government web resources and services.